Time;durP1;ratioP1;P1;durP2;ratioP2;P2;SDS_P1;SDS_P2;PMS_P1;PMS_P2;Temp;Humidity;BMP_temperature;BMP_pressure;BME280_temperature;BME280_humidity;BME280_pressure;Samples;Min_cycle;Max_cycle;Signal;HPM_P1;HPM_P2
2022/11/28 00:01:35;;;;;;;36.6;21.3;;;;;;;3.1;87.5;99600;;;;
2022/11/28 00:12:35;;;;;;;36.6;21.3;;;;;;;2.9;88.2;99590;;;;
2022/11/28 00:22:35;;;;;;;36.6;21.3;;;;;;;3;88.1;99600;;;;
2022/11/28 00:32:35;;;;;;;30.5;19.8;;;;;;;2.9;87.9;99610;;;;
2022/11/28 00:43:35;;;;;;;30.5;19.8;;;;;;;2.9;88.2;99620;;;;
2022/11/28 00:53:35;;;;;;;30.5;19.8;;;;;;;3.1;88;99620;;;;
2022/11/28 01:04:35;;;;;;;37.7;22.5;;;;;;;2.9;87.9;99610;;;;
2022/11/28 01:15:35;;;;;;;37.7;22.5;;;;;;;2.8;88.2;99580;;;;
2022/11/28 01:26:35;;;;;;;29.7;19.3;;;;;;;2.8;88.4;99570;;;;
2022/11/28 01:36:35;;;;;;;29.7;19.3;;;;;;;2.7;88.9;99550;;;;
2022/11/28 01:47:35;;;;;;;29.7;19.3;;;;;;;2.6;88.9;99530;;;;
2022/11/28 01:58:35;;;;;;;27.7;18.7;;;;;;;2.7;89;99520;;;;
2022/11/28 02:09:35;;;;;;;27.7;18.7;;;;;;;2.5;88.8;99510;;;;
2022/11/28 02:20:35;;;;;;;27.7;18.7;;;;;;;2.7;88.9;99500;;;;
2022/11/28 02:30:35;;;;;;;30.7;18.5;;;;;;;2.6;88.8;99500;;;;
2022/11/28 02:41:35;;;;;;;30.7;18.5;;;;;;;2.4;89.1;99490;;;;
2022/11/28 02:52:35;;;;;;;30.7;18.5;;;;;;;2.7;89.1;99490;;;;
2022/11/28 03:02:35;;;;;;;28.6;18.9;;;;;;;2.8;88.8;99480;;;;
2022/11/28 03:13:35;;;;;;;28.6;18.9;;;;;;;2.8;88.5;99470;;;;
2022/11/28 03:23:35;;;;;;;30.2;19.7;;;;;;;2.6;88.8;99460;;;;
2022/11/28 03:34:35;;;;;;;30.2;19.7;;;;;;;2.8;88.9;99450;;;;
2022/11/28 03:45:35;;;;;;;30.2;19.7;;;;;;;2.7;88.7;99450;;;;
2022/11/28 03:56:35;;;;;;;27.5;17.8;;;;;;;2.8;88.8;99440;;;;
2022/11/28 04:07:35;;;;;;;27.5;17.8;;;;;;;2.9;88.5;99440;;;;
2022/11/28 04:17:35;;;;;;;27.5;17.8;;;;;;;2.5;89.3;99430;;;;
2022/11/28 04:27:35;;;;;;;31;18.6;;;;;;;2.8;89.1;99430;;;;
2022/11/28 04:38:35;;;;;;;31;18.6;;;;;;;2.8;88.7;99430;;;;
2022/11/28 04:48:35;;;;;;;31;18.6;;;;;;;2.8;88.7;99430;;;;
2022/11/28 04:59:35;;;;;;;22.6;15.8;;;;;;;2.7;88.9;99430;;;;
2022/11/28 05:10:35;;;;;;;22.6;15.8;;;;;;;2.5;89.3;99420;;;;
2022/11/28 05:21:35;;;;;;;22.6;15.8;;;;;;;2.5;89.8;99410;;;;
2022/11/28 05:32:35;;;;;;;24.8;17.1;;;;;;;2.5;89.7;99420;;;;
2022/11/28 05:42:35;;;;;;;24.8;17.1;;;;;;;2.6;89.5;99410;;;;
2022/11/28 05:53:35;;;;;;;28.5;16.8;;;;;;;2.7;89.3;99420;;;;
2022/11/28 06:03:35;;;;;;;28.5;16.8;;;;;;;2.7;89.3;99420;;;;
2022/11/28 06:14:35;;;;;;;28.5;16.8;;;;;;;2.7;89.3;99420;;;;
2022/11/28 06:25:35;;;;;;;28.5;15.9;;;;;;;2.7;89.3;99420;;;;
2022/11/28 06:35:35;;;;;;;28.5;15.9;;;;;;;2.7;89.3;99410;;;;
2022/11/28 06:45:35;;;;;;;28.5;15.9;;;;;;;2.5;89.5;99410;;;;
2022/11/28 06:56:35;;;;;;;26.9;17.9;;;;;;;2.7;89.6;99410;;;;
2022/11/28 07:07:35;;;;;;;26.9;17.9;;;;;;;2.8;89.3;99420;;;;
2022/11/28 07:18:35;;;;;;;26.9;17.9;;;;;;;3;89.1;99420;;;;
2022/11/28 07:28:35;;;;;;;25.5;16.6;;;;;;;3;89.4;99410;;;;
2022/11/28 07:38:35;;;;;;;25.5;16.6;;;;;;;3.2;89;99410;;;;
2022/11/28 07:49:35;;;;;;;25.5;16.6;;;;;;;3.4;88.4;99410;;;;
2022/11/28 08:00:35;;;;;;;23.7;15.4;;;;;;;3.4;87.9;99410;;;;
2022/11/28 08:10:35;;;;;;;23.7;15.4;;;;;;;3.7;87.8;99410;;;;
2022/11/28 08:21:35;;;;;;;23.7;15.4;;;;;;;3.8;87.1;99410;;;;
2022/11/28 08:31:35;;;;;;;23.4;16.3;;;;;;;3.8;86.7;99410;;;;
2022/11/28 08:41:35;;;;;;;23.4;16.3;;;;;;;4.1;86.6;99400;;;;
2022/11/28 08:52:35;;;;;;;22.3;18.3;;;;;;;4.4;85.8;99390;;;;
2022/11/28 09:03:35;;;;;;;22.3;18.3;;;;;;;4.7;85;99380;;;;
2022/11/28 09:13:35;;;;;;;22.3;18.3;;;;;;;4.8;84.2;99370;;;;
2022/11/28 09:23:35;;;;;;;26.6;21.6;;;;;;;4.9;84;99350;;;;
2022/11/28 09:33:35;;;;;;;26.6;21.6;;;;;;;5;83.4;99340;;;;
2022/11/28 09:44:35;;;;;;;26.6;21.6;;;;;;;5.4;81.9;99330;;;;
2022/11/28 09:54:35;;;;;;;30.7;22.4;;;;;;;5.7;80.6;99320;;;;
2022/11/28 10:05:35;;;;;;;30.7;22.4;;;;;;;5.9;79.3;99310;;;;
2022/11/28 10:15:35;;;;;;;30.7;22.4;;;;;;;6.1;78.6;99300;;;;
2022/11/28 10:25:35;;;;;;;24.5;18.8;;;;;;;6.2;78.7;99300;;;;
2022/11/28 10:36:35;;;;;;;24.5;18.8;;;;;;;6.4;77.8;99280;;;;
2022/11/28 10:47:35;;;;;;;24.5;18.8;;;;;;;6.6;76.7;99270;;;;
2022/11/28 10:58:35;;;;;;;23;18.4;;;;;;;6.5;76.4;99260;;;;
2022/11/28 11:08:35;;;;;;;23;18.4;;;;;;;6.8;75.8;99240;;;;
2022/11/28 11:18:35;;;;;;;23;18.4;;;;;;;6.9;75.5;99240;;;;
2022/11/28 11:29:35;;;;;;;23.6;17.9;;;;;;;6.9;75;99230;;;;
2022/11/28 11:39:35;;;;;;;23.6;17.9;;;;;;;7.1;74.6;99230;;;;
2022/11/28 11:49:35;;;;;;;23.6;17.9;;;;;;;7;75.1;99230;;;;
2022/11/28 11:59:35;;;;;;;19.6;16.1;;;;;;;7.2;74.1;99220;;;;
2022/11/28 12:09:35;;;;;;;19.6;16.1;;;;;;;7;74.7;99220;;;;
2022/11/28 12:20:35;;;;;;;19.6;16.1;;;;;;;7.2;74.6;99210;;;;
2022/11/28 12:30:35;;;;;;;21.8;16.4;;;;;;;6.9;74.4;99210;;;;
2022/11/28 12:40:35;;;;;;;21.8;16.4;;;;;;;7;75.2;99220;;;;
2022/11/28 12:51:35;;;;;;;21.8;16.4;;;;;;;7.1;74.5;99200;;;;
2022/11/28 13:02:35;;;;;;;19;13.6;;;;;;;6.6;75;99200;;;;
2022/11/28 13:13:36;;;;;;;19;13.6;;;;;;;6.5;75.3;99200;;;;
2022/11/28 13:23:35;;;;;;;18.2;11.8;;;;;;;6.2;75.7;99190;;;;
2022/11/28 13:33:35;;;;;;;18.2;11.8;;;;;;;6.1;76.1;99190;;;;
2022/11/28 13:44:35;;;;;;;18.2;11.8;;;;;;;5.9;76.7;99190;;;;
2022/11/28 13:54:35;;;;;;;18;13.3;;;;;;;5.7;76.7;99180;;;;
2022/11/28 14:04:35;;;;;;;18;13.3;;;;;;;5.5;75.9;99180;;;;
2022/11/28 14:15:35;;;;;;;18;13.3;;;;;;;5;75.3;99180;;;;
2022/11/28 14:25:35;;;;;;;13.3;8.9;;;;;;;4.7;75.3;99180;;;;
2022/11/28 14:36:37;;;;;;;13.3;8.9;;;;;;;4.3;75.9;99180;;;;
2022/11/28 14:46:35;;;;;;;13.3;8.9;;;;;;;4;76.3;99180;;;;
2022/11/28 14:56:35;;;;;;;38;23.4;;;;;;;3.7;76.7;99180;;;;
2022/11/28 15:07:35;;;;;;;38;23.4;;;;;;;3.3;77.7;99180;;;;
2022/11/28 15:18:35;;;;;;;38;23.4;;;;;;;3.1;77.8;99180;;;;
2022/11/28 15:28:36;;;;;;;12.5;7.1;;;;;;;2.8;78.1;99180;;;;
2022/11/28 15:39:38;;;;;;;12.5;7.1;;;;;;;2.6;78.6;99180;;;;
2022/11/28 15:50:35;;;;;;;12.5;7.1;;;;;;;2.4;78.9;99180;;;;
2022/11/28 16:01:35;;;;;;;14.1;7.3;;;;;;;2.1;79.4;99170;;;;
2022/11/28 16:11:35;;;;;;;14.1;7.3;;;;;;;1.9;79.9;99180;;;;
2022/11/28 16:22:35;;;;;;;16.1;8.7;;;;;;;1.7;80.2;99180;;;;
2022/11/28 16:33:35;;;;;;;16.1;8.7;;;;;;;1.5;80.8;99180;;;;
2022/11/28 16:44:35;;;;;;;16.1;8.7;;;;;;;1.4;81.5;99190;;;;
2022/11/28 16:55:35;;;;;;;20.6;11.4;;;;;;;1.2;82.3;99190;;;;
2022/11/28 17:05:35;;;;;;;20.6;11.4;;;;;;;1.1;82.3;99190;;;;
2022/11/28 17:16:37;;;;;;;20.6;11.4;;;;;;;0.8;82.5;99190;;;;
2022/11/28 17:27:35;;;;;;;26.4;17.4;;;;;;;0.7;83.1;99200;;;;
2022/11/28 17:37:35;;;;;;;26.4;17.4;;;;;;;0.5;83.4;99210;;;;
2022/11/28 17:47:37;;;;;;;26.4;17.4;;;;;;;0.3;84;99200;;;;
2022/11/28 17:57:35;;;;;;;37.6;25.1;;;;;;;0.1;84.6;99200;;;;
2022/11/28 18:08:35;;;;;;;37.6;25.1;;;;;;;-0.1;85.9;99200;;;;
2022/11/28 18:18:35;;;;;;;37.6;25.1;;;;;;;-0.3;85.8;99200;;;;
2022/11/28 18:29:36;;;;;;;28.7;16.1;;;;;;;-0.5;85.8;99190;;;;
2022/11/28 18:39:35;;;;;;;28.7;16.1;;;;;;;-0.6;86;99190;;;;
2022/11/28 18:50:35;;;;;;;28.7;16.1;;;;;;;-0.7;86.7;99190;;;;
2022/11/28 19:00:35;;;;;;;33.1;18.7;;;;;;;-0.8;86.8;99200;;;;
2022/11/28 19:10:35;;;;;;;33.1;18.7;;;;;;;-0.9;86.9;99200;;;;
2022/11/28 19:21:35;;;;;;;34.7;23.2;;;;;;;-1;87.6;99190;;;;
2022/11/28 19:31:35;;;;;;;34.7;23.2;;;;;;;-1;87.9;99200;;;;
2022/11/28 19:41:35;;;;;;;34.7;23.2;;;;;;;-1.1;88;99200;;;;
2022/11/28 19:52:35;;;;;;;31.8;18.3;;;;;;;-1.2;88.4;99190;;;;
2022/11/28 20:03:35;;;;;;;31.8;18.3;;;;;;;-1.3;88.5;99200;;;;
2022/11/28 20:14:35;;;;;;;31.8;18.3;;;;;;;-1.3;89.4;99200;;;;
2022/11/28 20:24:35;;;;;;;40.9;22.5;;;;;;;-1.3;89.5;99210;;;;
2022/11/28 20:34:35;;;;;;;40.9;22.5;;;;;;;-1.3;89.6;99210;;;;
2022/11/28 20:45:35;;;;;;;40.9;22.5;;;;;;;-1.3;89.6;99210;;;;
2022/11/28 20:55:35;;;;;;;31.1;16.6;;;;;;;-1.4;89.7;99220;;;;
2022/11/28 21:05:35;;;;;;;31.1;16.6;;;;;;;-1.4;89.7;99220;;;;
2022/11/28 21:15:35;;;;;;;31.1;16.6;;;;;;;-1.4;90.4;99220;;;;
2022/11/28 21:26:35;;;;;;;24.8;13.7;;;;;;;-1.4;90.4;99220;;;;
2022/11/28 21:36:36;;;;;;;24.8;13.7;;;;;;;-1.5;90.4;99220;;;;
2022/11/28 21:47:35;;;;;;;24.8;13.7;;;;;;;-1.6;90.3;99230;;;;
2022/11/28 21:57:35;;;;;;;29.7;18.9;;;;;;;-1.7;90.1;99240;;;;
2022/11/28 22:07:35;;;;;;;29.7;18.9;;;;;;;-1.8;90;99250;;;;
2022/11/28 22:18:35;;;;;;;29.7;18.9;;;;;;;-1.9;89.9;99240;;;;
2022/11/28 22:28:35;;;;;;;27.6;15.3;;;;;;;-2;89.7;99250;;;;
2022/11/28 22:38:35;;;;;;;27.6;15.3;;;;;;;-2.2;89.6;99240;;;;
2022/11/28 22:48:36;;;;;;;27.6;15.3;;;;;;;-2.2;89.7;99240;;;;
2022/11/28 22:59:37;;;;;;;24.7;17;;;;;;;-2.3;89.6;99240;;;;
2022/11/28 23:10:35;;;;;;;24.7;17;;;;;;;-2.4;89.5;99240;;;;
2022/11/28 23:21:35;;;;;;;27.9;16.8;;;;;;;-2.5;89.8;99240;;;;
2022/11/28 23:32:35;;;;;;;27.9;16.8;;;;;;;-2.4;90.4;99230;;;;
2022/11/28 23:43:35;;;;;;;27.9;16.8;;;;;;;-2.4;90.9;99230;;;;
2022/11/28 23:53:36;;;;;;;31.4;17.9;;;;;;;-2.4;91;99220;;;;
